Delta Virtual Airport Information Service

Seville San Pablo Airport

ICAO: LEZL Country: Spain
Latitude: 37.418 Longitude: -5.8931
Latest Arrival : RYR550 (GCLP-LEZL) Latest Departure : RYR3075 (2) (LEZL-LEBL)


WX CaptureLIVE
Data provided by noaa.gov | Fetched at 05:16:58

METAR : LEZL 271000Z 03003KT 350V070 CAVOK 08/03 Q1019 NOSIG

TAF : LEZL 271000Z 03003KT 350V070 CAVOK 08/03 Q1019 NOSIG


Runway Data for LEZL
Data provided by openaviationdata.com

Runway ID Mag Var Hdg Length Elevation Surface ILS Freq ILS Id ILS Slope
9 -2 91° 11017 ft 111 ft Concrete 111.1 ISE 3
27 -2 271° 11017 ft 111 ft Concrete 110.1 ISV 3

Seville San Pablo Airport, Spain
Use only for reference purposes



Not for navigational purposes.